Rubcovsk, Russia
Current Conditions -  °F | °C
As of 6:00 AM on Saturday 25 Oct 2014 (Local Time) from UASK Reporting Station
Broken Clouds Broken Clouds  
Wind Chill: 44°   Ceiling: 7100
Heat Index: 48°   Visibility: 6mi
Dew Point: 39°   Wind: 9mph
Humidity: 71%   Direction: 120°ESE
Pressure: 29.94"   Gusts: NA
Location:  51.53°N, 81.2°E
Report Text: UASK 242300Z 12004MPS 9999 SCT050 BKN071 09/04 Q1014 R12/210260NOSIG RMK QFE735/0980
Loading
Personal Weather Stations






























Interactive Weather Map
Tropical Storm Tracking
New forecast layout! Learn more

10-Day Weather Forecast

Advertisements
Track Severe Weather on mobile